This is the latest recevied weather packets stored in our database for station/object DK2OO-6. If no packets are shown the sender has not sent any weather packets the latest 10 day(s).
| Time | Temp. | Humidity | Pressure | Rain* | Wind** | Luminosity | Snow |
|---|---|---|---|---|---|---|---|
| 1788356003 | 24.44° C | 51% | 1014 hPa | 0 mm | - | - | - |
| 1788354190 | 24.44° C | 51% | 1014.2 hPa | 0 mm | - | - | - |
| 1788352378 | 24.44° C | 51% | 1014.5 hPa | 0 mm | - | - | - |
| 1788351771 | 24.44° C | 52% | 1014.4 hPa | 0 mm | - | - | - |
| 1788346932 | 22.78° C | 59% | 1015.2 hPa | 132.08 mm | - | - | - |
| 1788345731 | 22.22° C | 62% | 1015.2 hPa | 0 mm | - | - | - |
| 1788345126 | 21.67° C | 64% | 1015.4 hPa | 0 mm | - | - | - |
| 1788343914 | 20.56° C | 66% | 1015.7 hPa | 0 mm | - | - | - |
| 1788343303 | 20° C | 67% | 1015.7 hPa | 0 mm | - | - | - |
| 1788341497 | 18.89° C | 71% | 1015.7 hPa | 0 mm | - | - | - |
| 1788340289 | 18.33° C | 74% | 1015.7 hPa | 0 mm | - | - | - |
| 1788339682 | 17.22° C | 77% | 1015.7 hPa | 0 mm | - | - | - |
| 1788339082 | 16.67° C | 77% | 1015.9 hPa | 0 mm | - | - | - |
| 1788338482 | 16.11° C | 77% | 1015.7 hPa | 0 mm | - | - | - |
| 1788337271 | 15.56° C | 78% | 1015.8 hPa | 0 mm | - | - | - |
| 1788336664 | 15° C | 79% | 1015.9 hPa | 0 mm | - | - | - |
| 1788336060 | 15° C | 80% | 1015.8 hPa | 0 mm | - | - | - |
| 1788335448 | 14.44° C | 80% | 1015.7 hPa | 0 mm | - | - | - |
| 1788334842 | 13.89° C | 80% | 1015.6 hPa | 0 mm | - | - | - |
| 1788334236 | 13.89° C | 81% | 1015.5 hPa | 0 mm | - | - | - |
| 1788331226 | 11.11° C | 83% | 1015.5 hPa | 0 mm | - | - | - |
| 1788330623 | 10.56° C | 83% | 1015.6 hPa | 0 mm | - | - | - |
| 1788330018 | 10.56° C | 83% | 1015.7 hPa | 0 mm | - | - | - |
| 1788328819 | 10° C | 82% | 1015.6 hPa | 0 mm | - | - | - |
| 1788328214 | 10° C | 82% | 1015.5 hPa | 0 mm | - | - | - |
* Rain latest hour (hover to see other rain measurements)
** Current wind speed in m/s (hover to see current wind gust speed)